Time;durP1;ratioP1;P1;durP2;ratioP2;P2;SDS_P1;SDS_P2;PMS_P1;PMS_P2;Temp;Humidity;BMP_temperature;BMP_pressure;BME280_temperature;BME280_humidity;BME280_pressure;Samples;Min_cycle;Max_cycle;Signal;HPM_P1;HPM_P2
2023/03/05 00:00:47;;;;;;;11.95;3.30;;;;;;;6.71;64.21;102024.06;3548828;40;20109;-67
2023/03/05 00:03:12;;;;;;;11.35;3.58;;;;;;;6.63;64.53;101999.38;3549767;40;20054;-67
2023/03/05 00:05:38;;;;;;;13.35;3.38;;;;;;;6.67;64.56;102011.72;3552801;40;20057;-68
2023/03/05 00:08:03;;;;;;;7.88;2.72;;;;;;;6.65;64.77;102018.91;3551919;40;20308;-68
2023/03/05 00:10:29;;;;;;;10.07;2.92;;;;;;;6.62;65.00;102002.94;3550620;40;20053;-68
2023/03/05 00:12:55;;;;;;;9.10;3.03;;;;;;;6.58;65.10;102014.63;3555921;40;20057;-68
2023/03/05 00:15:20;;;;;;;12.85;3.15;;;;;;;6.58;65.37;102011.09;3551479;40;20053;-67
2023/03/05 00:17:46;;;;;;;8.75;2.58;;;;;;;6.57;65.39;102004.88;3549025;40;20062;-68
2023/03/05 00:20:12;;;;;;;6.95;2.25;;;;;;;6.55;65.37;102011.16;3551850;40;20056;-68
2023/03/05 00:22:37;;;;;;;12.50;2.80;;;;;;;6.51;65.47;102011.25;3553262;40;20295;-68
2023/03/05 00:25:05;;;;;;;10.32;2.35;;;;;;;6.18;65.98;101954.22;3551293;40;20058;-68
2023/03/05 00:27:30;;;;;;;6.97;2.45;;;;;;;6.50;65.86;102011.28;3551800;40;20342;-67
2023/03/05 00:29:56;;;;;;;8.27;2.42;;;;;;;6.49;65.90;102010.41;3551959;40;20086;-67
2023/03/05 00:32:22;;;;;;;9.60;2.65;;;;;;;6.50;66.26;102006.84;3552227;40;20064;-68
2023/03/05 00:34:48;;;;;;;6.18;2.33;;;;;;;6.54;66.03;101994.28;3551371;40;20045;-68
2023/03/05 00:37:15;;;;;;;12.10;2.75;;;;;;;6.54;65.81;101996.94;3551154;40;20041;-67
2023/03/05 00:39:41;;;;;;;7.85;2.42;;;;;;;6.51;65.61;101989.00;3550471;40;21467;-68
2023/03/05 00:42:07;;;;;;;10.68;2.33;;;;;;;6.48;66.12;101989.97;3553474;40;20319;-68
2023/03/05 00:44:33;;;;;;;8.73;2.80;;;;;;;6.46;65.77;101982.91;3552485;40;20129;-68
2023/03/05 00:46:58;;;;;;;9.98;2.60;;;;;;;6.41;65.83;101974.16;3550207;40;20061;-68
2023/03/05 00:49:24;;;;;;;8.10;2.58;;;;;;;6.46;66.31;101980.22;3547981;40;20200;-67
2023/03/05 00:51:50;;;;;;;7.10;2.20;;;;;;;6.38;66.62;101966.22;3551394;40;20085;-68
2023/03/05 00:54:15;;;;;;;8.35;2.20;;;;;;;6.45;66.16;101978.47;3551395;40;20469;-68
2023/03/05 00:56:41;;;;;;;12.52;2.67;;;;;;;6.41;66.10;101980.38;3551438;40;20069;-68
2023/03/05 00:59:06;;;;;;;10.30;2.60;;;;;;;6.38;66.15;101975.09;3552271;40;20061;-68
2023/03/05 01:01:32;;;;;;;8.35;2.30;;;;;;;6.38;66.12;101977.78;3550425;40;20053;-67
2023/03/05 01:03:59;;;;;;;12.02;2.40;;;;;;;6.12;66.58;101934.81;3549638;40;20065;-68
2023/03/05 01:06:26;;;;;;;9.68;2.75;;;;;;;6.37;67.08;101975.13;3550858;40;20066;-67
2023/03/05 01:08:52;;;;;;;10.68;2.50;;;;;;;6.35;66.97;101967.16;3552024;40;20304;-68
2023/03/05 01:11:17;;;;;;;13.95;3.20;;;;;;;6.34;66.87;101965.38;3553609;40;20061;-68
2023/03/05 01:13:43;;;;;;;5.70;2.25;;;;;;;6.34;67.17;101959.19;3550395;40;20338;-68
2023/03/05 01:16:09;;;;;;;11.18;2.78;;;;;;;6.32;67.17;101951.22;3550379;40;20113;-68
2023/03/05 01:18:36;;;;;;;9.65;2.70;;;;;;;6.35;67.23;101955.63;3552890;40;20061;-68
2023/03/05 01:21:03;;;;;;;14.88;2.83;;;;;;;6.35;67.21;101955.63;3554252;40;20385;-68
2023/03/05 01:23:29;;;;;;;9.73;2.70;;;;;;;6.31;67.33;101951.25;3550149;40;20083;-68
2023/03/05 01:25:58;;;;;;;11.10;2.88;;;;;;;6.33;67.83;101947.63;3548738;40;20475;-68
2023/03/05 01:28:25;;;;;;;11.70;2.97;;;;;;;6.25;67.59;101929.16;3551058;40;20136;-68
2023/03/05 01:30:51;;;;;;;12.23;3.38;;;;;;;6.32;67.56;101947.69;3554517;40;20240;-68
2023/03/05 01:33:17;;;;;;;8.35;2.63;;;;;;;6.30;68.36;101941.50;3553490;40;20419;-68
2023/03/05 01:35:47;;;;;;;8.95;2.58;;;;;;;6.11;68.55;101915.25;3549502;40;20131;-68
2023/03/05 01:38:15;;;;;;;9.43;2.33;;;;;;;6.18;68.48;101924.00;3549769;40;20380;-68
2023/03/05 01:40:42;;;;;;;9.38;2.28;;;;;;;6.07;68.51;101918.06;3550008;40;21404;-68
2023/03/05 01:43:10;;;;;;;7.68;2.35;;;;;;;6.14;68.61;101930.34;3547938;40;20069;-67
2023/03/05 01:45:38;;;;;;;5.88;1.95;;;;;;;6.09;68.86;101917.13;3554435;40;20053;-68
2023/03/05 01:48:04;;;;;;;8.45;2.67;;;;;;;6.12;68.53;101917.03;3554166;40;20691;-68
2023/03/05 01:50:31;;;;;;;8.20;2.80;;;;;;;6.11;68.80;101903.72;3551148;40;20060;-68
2023/03/05 01:53:06;;;;;;;13.48;2.85;;;;;;;6.07;68.84;101900.25;3553375;40;20127;-68
2023/03/05 01:55:36;;;;;;;14.77;2.70;;;;;;;6.11;68.94;101903.72;3549339;40;20061;-68
2023/03/05 01:58:12;;;;;;;9.93;2.72;;;;;;;6.05;69.47;101897.59;3553321;40;20065;-68
2023/03/05 02:00:47;;;;;;;10.20;3.00;;;;;;;5.97;69.62;101890.75;3551458;40;20347;-68
2023/03/05 02:03:14;;;;;;;9.93;2.50;;;;;;;6.02;69.98;101888.81;3550685;40;20328;-68
2023/03/05 02:05:43;;;;;;;11.70;2.50;;;;;;;6.01;69.40;101884.41;3551284;40;20073;-68
2023/03/05 02:08:13;;;;;;;8.40;2.33;;;;;;;5.99;69.46;101881.78;3552504;40;20069;-69
2023/03/05 02:10:50;;;;;;;8.77;2.40;;;;;;;5.97;69.62;101880.06;3551692;40;20447;-69
2023/03/05 02:13:26;;;;;;;10.90;2.00;;;;;;;5.97;69.44;101874.72;3553615;40;20065;-69
2023/03/05 02:15:55;;;;;;;11.90;2.17;;;;;;;5.96;69.56;101867.63;3552923;40;20399;-69
2023/03/05 02:18:21;;;;;;;8.98;2.53;;;;;;;5.97;69.45;101875.59;3552240;40;20056;-68
2023/03/05 02:21:08;;;;;;;9.20;1.83;;;;;;;5.97;69.51;101872.06;3553264;40;20065;-68
2023/03/05 02:23:37;;;;;;;8.18;2.10;;;;;;;5.97;69.21;101869.38;3552058;40;20392;-68
2023/03/05 02:26:07;;;;;;;7.72;2.40;;;;;;;5.98;69.75;101860.44;3548715;40;20097;-68
2023/03/05 02:28:52;;;;;;;12.77;2.40;;;;;;;5.96;70.03;101862.28;3550092;40;20053;-68
2023/03/05 02:31:22;;;;;;;7.40;2.25;;;;;;;5.93;70.21;101862.34;3556243;40;20416;-68
2023/03/05 02:33:49;;;;;;;7.78;2.22;;;;;;;5.89;70.00;101858.00;3550158;40;20131;-68
2023/03/05 02:36:15;;;;;;;8.20;2.47;;;;;;;5.91;70.07;101858.84;3553010;40;20106;-68
2023/03/05 02:38:43;;;;;;;8.85;2.33;;;;;;;5.88;70.46;101854.44;3558083;40;20045;-67
2023/03/05 02:41:10;;;;;;;6.55;1.85;;;;;;;5.89;70.90;101855.31;3551984;40;20141;-68
2023/03/05 02:43:36;;;;;;;9.18;2.10;;;;;;;5.74;70.46;101830.81;3558725;40;20052;-68
2023/03/05 02:46:02;;;;;;;7.82;2.20;;;;;;;5.88;70.57;101843.78;3554792;40;20478;-68
2023/03/05 02:48:27;;;;;;;8.43;2.10;;;;;;;5.66;70.27;101807.91;3554344;40;20053;-68
2023/03/05 02:50:55;;;;;;;7.60;2.40;;;;;;;5.85;70.21;101838.50;3560222;40;20435;-69
2023/03/05 02:53:22;;;;;;;6.78;2.22;;;;;;;5.84;70.71;101835.91;3555115;40;20060;-68
2023/03/05 02:55:49;;;;;;;5.65;2.15;;;;;;;5.84;70.70;101834.09;3549603;40;20062;-68
2023/03/05 02:58:15;;;;;;;8.70;2.25;;;;;;;5.83;70.34;101827.00;3550046;40;20058;-68
2023/03/05 03:00:42;;;;;;;7.93;2.17;;;;;;;5.82;70.65;101828.78;3551961;40;20069;-68
2023/03/05 03:03:08;;;;;;;8.65;2.53;;;;;;;5.76;70.70;101807.59;3547995;40;20081;-68
2023/03/05 03:05:35;;;;;;;9.88;2.50;;;;;;;5.55;70.07;101765.47;3556162;40;20071;-68
2023/03/05 03:08:02;;;;;;;9.45;2.45;;;;;;;5.84;70.83;101825.22;3552837;40;20049;-68
2023/03/05 03:10:27;;;;;;;8.30;2.65;;;;;;;5.80;71.18;101822.66;3552880;40;20143;-68
2023/03/05 03:12:53;;;;;;;8.20;2.47;;;;;;;5.80;71.39;101814.63;3554316;40;20073;-68
2023/03/05 03:15:19;;;;;;;10.73;2.65;;;;;;;5.79;70.77;101807.53;3551039;40;20094;-68
2023/03/05 03:17:45;;;;;;;9.10;2.30;;;;;;;5.70;70.97;101797.09;3557380;40;20068;-68
2023/03/05 03:20:15;;;;;;;10.93;2.90;;;;;;;5.78;71.41;101810.25;3553385;40;20065;-68
2023/03/05 03:22:44;;;;;;;13.93;3.13;;;;;;;5.75;71.03;101813.00;3552012;40;20053;-68
2023/03/05 03:25:14;;;;;;;8.73;2.85;;;;;;;5.73;70.74;101813.03;3545996;40;20527;-68
2023/03/05 03:27:40;;;;;;;7.97;2.92;;;;;;;5.70;71.46;101802.44;3554257;40;20066;-68
2023/03/05 03:30:07;;;;;;;11.13;3.22;;;;;;;5.70;71.11;101802.44;3550878;40;20068;-68
2023/03/05 03:32:33;;;;;;;9.73;2.60;;;;;;;5.68;71.19;101793.63;3553360;40;20093;-68
2023/03/05 03:34:59;;;;;;;8.90;2.55;;;;;;;5.65;71.26;101795.50;3552693;40;20477;-68
2023/03/05 03:37:25;;;;;;;11.38;2.88;;;;;;;5.60;71.42;101784.91;3561068;40;20052;-68
2023/03/05 03:39:51;;;;;;;9.35;2.75;;;;;;;5.57;71.49;101777.00;3549880;40;20113;-67
2023/03/05 03:42:19;;;;;;;11.35;2.88;;;;;;;5.52;71.58;101776.25;3551787;40;20080;-68
2023/03/05 03:44:46;;;;;;;13.30;3.30;;;;;;;5.46;71.66;101773.75;3546109;40;20061;-68
2023/03/05 03:47:11;;;;;;;9.15;2.70;;;;;;;5.46;72.12;101771.09;3552933;40;20305;-68
2023/03/05 03:49:37;;;;;;;10.27;3.20;;;;;;;5.44;72.02;101768.44;3553616;40;20061;-68
2023/03/05 03:52:03;;;;;;;7.97;2.90;;;;;;;5.45;71.88;101763.97;3547838;40;20057;-68
2023/03/05 03:54:29;;;;;;;12.88;3.38;;;;;;;5.45;71.79;101764.84;3556709;40;20087;-68
2023/03/05 03:56:54;;;;;;;10.70;3.08;;;;;;;5.46;72.16;101768.41;3554108;40;20060;-68
2023/03/05 03:59:20;;;;;;;12.05;3.10;;;;;;;5.43;72.10;101757.81;3544717;40;20058;-68
2023/03/05 04:01:46;;;;;;;8.52;2.90;;;;;;;5.20;72.03;101727.28;3550967;40;20352;-67
2023/03/05 04:04:12;;;;;;;8.43;3.20;;;;;;;5.40;71.86;101760.56;3556134;40;20065;-68
2023/03/05 04:06:39;;;;;;;15.27;3.50;;;;;;;5.11;71.79;101714.19;3555726;40;20059;-67
2023/03/05 04:09:07;;;;;;;14.13;3.70;;;;;;;5.33;71.95;101752.72;3554972;40;20046;-67
2023/03/05 04:11:34;;;;;;;8.65;2.83;;;;;;;4.81;72.27;101665.19;3561296;40;20061;-67
2023/03/05 04:14:00;;;;;;;13.27;3.40;;;;;;;5.33;72.45;101758.06;3548805;40;20049;-68
2023/03/05 04:16:25;;;;;;;9.50;3.00;;;;;;;5.35;72.10;101747.34;3550021;40;20127;-68
2023/03/05 04:18:52;;;;;;;7.20;2.75;;;;;;;5.33;71.84;101752.72;3554508;40;20060;-68
2023/03/05 04:21:17;;;;;;;10.70;3.35;;;;;;;5.33;72.32;101742.06;3552107;40;20064;-68
2023/03/05 04:23:44;;;;;;;11.75;3.67;;;;;;;5.30;72.35;101734.13;3552797;40;20079;-68
2023/03/05 04:26:10;;;;;;;8.88;3.67;;;;;;;5.33;72.12;101744.72;3548709;40;20069;-68
2023/03/05 04:28:36;;;;;;;8.10;3.72;;;;;;;5.33;72.25;101727.84;3553980;40;20269;-68
2023/03/05 04:31:03;;;;;;;12.18;3.88;;;;;;;5.33;72.03;101725.19;3549741;40;20093;-68
2023/03/05 04:33:29;;;;;;;12.98;3.88;;;;;;;5.33;71.98;101728.72;3548238;40;20066;-68
2023/03/05 04:35:54;;;;;;;12.45;4.00;;;;;;;5.31;72.42;101730.53;3551309;40;20276;-68
2023/03/05 04:38:20;;;;;;;11.50;3.70;;;;;;;5.30;72.36;101722.59;3551750;40;20057;-69
2023/03/05 04:40:46;;;;;;;9.75;4.40;;;;;;;5.31;71.91;101727.88;3550046;40;20074;-68
2023/03/05 04:43:12;;;;;;;11.50;4.47;;;;;;;5.19;72.45;101706.88;3555796;40;21947;-68
2023/03/05 04:45:42;;;;;;;13.43;4.78;;;;;;;5.28;72.84;101725.28;3548540;40;20052;-68
2023/03/05 04:48:09;;;;;;;14.88;4.22;;;;;;;5.26;72.74;101715.56;3550132;40;20069;-68
2023/03/05 04:50:35;;;;;;;14.73;4.40;;;;;;;5.24;72.34;101712.09;3553653;40;20276;-68
2023/03/05 04:53:02;;;;;;;9.10;4.38;;;;;;;5.31;72.51;101724.34;3554308;40;20107;-68
2023/03/05 04:55:27;;;;;;;14.07;4.75;;;;;;;5.34;72.81;101711.81;3548390;40;20068;-69
2023/03/05 04:57:53;;;;;;;10.65;4.57;;;;;;;5.30;72.53;101706.59;3553390;40;20057;-69
2023/03/05 05:00:19;;;;;;;14.50;5.30;;;;;;;5.33;72.30;101707.41;3551216;40;20058;-69
2023/03/05 05:02:48;;;;;;;12.60;4.63;;;;;;;5.14;72.66;101674.16;3551325;40;20285;-69
2023/03/05 05:05:19;;;;;;;10.27;5.00;;;;;;;5.35;72.80;101710.88;3551565;40;20053;-67
2023/03/05 05:07:44;;;;;;;9.98;5.20;;;;;;;5.35;72.75;101704.69;3551473;40;20150;-68
2023/03/05 05:10:13;;;;;;;16.27;7.03;;;;;;;5.37;72.80;101702.00;3549803;40;20404;-69
2023/03/05 05:12:39;;;;;;;15.15;5.65;;;;;;;5.37;72.30;101691.31;3552679;40;20072;-68
2023/03/05 05:15:07;;;;;;;14.35;5.28;;;;;;;5.35;72.75;101696.69;3549700;40;20115;-68
2023/03/05 05:17:33;;;;;;;9.60;4.30;;;;;;;5.39;72.56;101689.47;3553689;40;20057;-68
2023/03/05 05:20:03;;;;;;;11.52;4.90;;;;;;;5.38;72.45;101693.06;3552714;40;20062;-68
2023/03/05 05:22:29;;;;;;;10.75;4.50;;;;;;;5.35;72.16;101689.56;3553202;40;20097;-68
2023/03/05 05:24:55;;;;;;;13.00;5.22;;;;;;;5.35;72.46;101689.56;3550924;40;20051;-68
2023/03/05 05:27:21;;;;;;;11.43;5.28;;;;;;;5.34;72.64;101687.81;3556562;40;20285;-68
2023/03/05 05:29:51;;;;;;;13.40;5.25;;;;;;;5.35;72.88;101689.56;3557719;40;20342;-68
2023/03/05 05:32:22;;;;;;;9.65;4.63;;;;;;;5.33;72.57;101683.41;3556020;40;20047;-68
2023/03/05 05:34:53;;;;;;;13.85;5.63;;;;;;;5.36;72.83;101687.78;3551273;40;20069;-68
2023/03/05 05:37:18;;;;;;;8.85;5.18;;;;;;;5.38;72.79;101687.72;3551414;40;20049;-68
2023/03/05 05:39:48;;;;;;;11.38;5.55;;;;;;;5.34;72.76;101681.59;3553824;40;20281;-67
2023/03/05 05:42:20;;;;;;;15.43;5.72;;;;;;;5.35;73.35;101686.88;3553930;40;20053;-68
2023/03/05 05:44:46;;;;;;;8.15;5.00;;;;;;;5.33;73.49;101679.88;3557296;40;20049;-68
2023/03/05 05:47:14;;;;;;;12.73;5.05;;;;;;;5.05;73.32;101637.94;3553714;40;20050;-68
2023/03/05 05:49:40;;;;;;;10.43;4.82;;;;;;;5.30;74.01;101687.94;3554147;40;20062;-68
2023/03/05 05:52:08;;;;;;;12.82;5.38;;;;;;;5.13;74.55;101654.59;3553937;40;20065;-68
2023/03/05 05:54:34;;;;;;;13.57;5.05;;;;;;;5.26;74.88;101681.78;3555036;40;20061;-68
2023/03/05 05:57:00;;;;;;;13.30;6.13;;;;;;;5.22;75.23;101672.13;3557256;40;20127;-67
2023/03/05 05:59:26;;;;;;;16.65;5.40;;;;;;;5.11;75.71;101659.09;3551444;40;20064;-67
2023/03/05 06:01:51;;;;;;;11.23;5.80;;;;;;;5.19;75.84;101666.88;3550432;40;20340;-67
2023/03/05 06:04:17;;;;;;;14.38;6.28;;;;;;;5.20;75.79;101662.41;3555683;40;20060;-67
2023/03/05 06:06:43;;;;;;;16.60;6.05;;;;;;;5.23;76.17;101659.69;3555055;40;20061;-67
2023/03/05 06:09:08;;;;;;;10.38;5.57;;;;;;;5.23;76.06;101655.25;3551434;40;20069;-67
2023/03/05 06:11:34;;;;;;;9.20;5.80;;;;;;;5.24;76.50;101651.66;3554074;40;20068;-67
2023/03/05 06:14:02;;;;;;;14.15;6.00;;;;;;;5.24;75.90;101649.00;3553469;40;20386;-66
2023/03/05 06:16:29;;;;;;;15.50;6.18;;;;;;;5.24;76.22;101646.31;3554149;40;21243;-68
2023/03/05 06:18:54;;;;;;;12.95;5.82;;;;;;;5.20;76.16;101642.00;3560761;40;20107;-67
2023/03/05 06:21:22;;;;;;;14.63;6.25;;;;;;;5.24;76.13;101642.78;3554335;40;20089;-67
2023/03/05 06:23:49;;;;;;;10.48;6.18;;;;;;;5.26;76.40;101649.81;3551289;40;20307;-67
2023/03/05 06:26:19;;;;;;;13.20;6.13;;;;;;;5.24;76.11;101645.47;3554716;40;20334;-67
2023/03/05 06:28:45;;;;;;;10.80;5.80;;;;;;;5.27;76.96;101653.38;3551130;40;20146;-67
2023/03/05 06:31:20;;;;;;;15.73;6.28;;;;;;;5.20;76.55;101626.00;3551367;40;20062;-66
2023/03/05 06:33:48;;;;;;;12.98;5.53;;;;;;;4.57;76.35;101520.22;3551489;40;20049;-67
2023/03/05 06:36:18;;;;;;;12.98;5.47;;;;;;;5.30;76.55;101654.16;3555402;40;20064;-67
2023/03/05 06:38:44;;;;;;;12.98;5.90;;;;;;;5.29;76.50;101652.38;3553622;40;20410;-67
2023/03/05 06:41:15;;;;;;;13.30;6.03;;;;;;;5.27;76.60;101650.72;3551356;40;20061;-68
2023/03/05 06:43:44;;;;;;;12.68;5.70;;;;;;;5.26;77.23;101648.94;3552703;40;20077;-67
2023/03/05 06:46:18;;;;;;;9.20;5.32;;;;;;;5.25;76.98;101647.19;3555911;40;20062;-67
2023/03/05 06:48:44;;;;;;;16.63;6.20;;;;;;;5.23;77.43;101641.91;3554880;40;20069;-67
2023/03/05 06:51:21;;;;;;;8.80;5.22;;;;;;;5.24;77.14;101649.00;3549910;40;20073;-67
2023/03/05 06:53:48;;;;;;;10.55;5.60;;;;;;;5.27;77.37;101650.72;3552489;40;20056;-66
2023/03/05 06:56:15;;;;;;;12.07;5.55;;;;;;;5.28;77.61;101652.44;3552648;40;20529;-68
2023/03/05 06:58:45;;;;;;;9.73;5.57;;;;;;;5.30;77.42;101648.84;3552262;40;20058;-67
2023/03/05 07:01:12;;;;;;;12.75;5.90;;;;;;;5.32;77.24;101641.66;3551301;40;20066;-67
2023/03/05 07:03:38;;;;;;;8.98;4.50;;;;;;;5.25;77.30;101642.72;3553353;40;20064;-68
2023/03/05 07:06:07;;;;;;;6.97;4.47;;;;;;;4.99;77.27;101591.94;3551981;40;20068;-67
2023/03/05 07:08:33;;;;;;;7.53;5.10;;;;;;;5.34;77.11;101647.81;3550619;40;20073;-67
2023/03/05 07:11:00;;;;;;;12.40;4.63;;;;;;;5.32;77.12;101646.97;3547061;40;20068;-67
2023/03/05 07:13:26;;;;;;;10.18;4.57;;;;;;;4.78;76.96;101558.72;3550788;40;20094;-66
2023/03/05 07:15:53;;;;;;;7.72;4.30;;;;;;;5.30;77.34;101651.50;3548472;40;20298;-67
2023/03/05 07:18:19;;;;;;;11.23;6.75;;;;;;;5.40;77.39;101653.91;3551372;40;20053;-67
2023/03/05 07:20:44;;;;;;;8.65;4.55;;;;;;;5.39;77.58;101633.47;3550974;40;20053;-66
2023/03/05 07:23:10;;;;;;;12.45;7.85;;;;;;;5.57;77.61;101633.84;3548851;40;20060;-67
2023/03/05 07:25:38;;;;;;;9.98;5.07;;;;;;;5.65;76.80;101633.66;3550855;40;20292;-67
2023/03/05 07:28:05;;;;;;;7.65;3.88;;;;;;;5.72;76.53;101635.22;3549902;40;20104;-66
2023/03/05 07:30:33;;;;;;;5.50;3.90;;;;;;;5.78;76.80;101629.72;3551222;40;20406;-67
2023/03/05 07:32:59;;;;;;;9.10;4.10;;;;;;;5.79;76.37;101634.13;3556629;40;20126;-66
2023/03/05 07:35:25;;;;;;;5.53;3.85;;;;;;;5.80;76.66;101627.88;3550215;40;20355;-66
2023/03/05 07:37:51;;;;;;;5.47;3.42;;;;;;;5.86;76.45;101632.13;3550028;40;20364;-65
2023/03/05 07:40:16;;;;;;;7.13;3.70;;;;;;;5.88;76.22;101640.97;3551105;40;20057;-66
2023/03/05 07:42:42;;;;;;;7.53;3.47;;;;;;;5.88;75.67;101632.09;3553209;40;20057;-65
2023/03/05 07:45:09;;;;;;;5.88;2.97;;;;;;;5.82;75.72;101618.00;3551254;40;20431;-65
2023/03/05 07:47:36;;;;;;;6.35;3.60;;;;;;;5.84;75.29;101618.00;3553868;40;20053;-65
2023/03/05 07:50:02;;;;;;;7.30;3.17;;;;;;;6.01;76.03;101633.53;3554778;40;20418;-66
2023/03/05 07:52:28;;;;;;;8.52;3.15;;;;;;;5.99;75.66;101617.56;3551336;40;20057;-66
2023/03/05 07:54:53;;;;;;;5.03;2.97;;;;;;;6.09;75.54;101628.84;3550812;40;20417;-65
2023/03/05 07:57:19;;;;;;;6.15;3.17;;;;;;;6.13;75.08;101630.50;3551645;40;20056;-66
2023/03/05 07:59:45;;;;;;;6.40;2.85;;;;;;;6.16;75.09;101630.41;3551003;40;20295;-65
2023/03/05 08:02:12;;;;;;;3.85;2.25;;;;;;;6.14;75.01;101626.88;3555476;40;20281;-65
2023/03/05 08:04:39;;;;;;;5.82;2.67;;;;;;;6.17;75.25;101626.78;3552469;40;20419;-65
2023/03/05 08:07:05;;;;;;;5.57;2.50;;;;;;;6.19;74.14;101622.28;3549755;40;20072;-65
2023/03/05 08:09:30;;;;;;;3.03;2.03;;;;;;;6.21;74.52;101622.22;3556328;40;20104;-65
2023/03/05 08:11:56;;;;;;;6.85;2.13;;;;;;;6.25;74.36;101619.44;3549656;40;20273;-65
2023/03/05 08:14:22;;;;;;;5.40;2.30;;;;;;;6.31;73.76;101623.69;3551733;40;20065;-65
2023/03/05 08:16:51;;;;;;;7.28;2.55;;;;;;;6.35;73.43;101625.38;3549694;40;20054;-65
2023/03/05 08:19:19;;;;;;;5.20;2.70;;;;;;;6.45;73.80;101623.28;3552910;40;20057;-64
2023/03/05 08:21:46;;;;;;;5.22;2.30;;;;;;;6.43;72.92;101617.09;3556966;40;20484;-65
2023/03/05 08:24:13;;;;;;;7.80;2.78;;;;;;;6.25;72.84;101575.84;3553118;40;20072;-64
2023/03/05 08:26:40;;;;;;;3.90;2.30;;;;;;;6.46;72.59;101615.19;3549578;40;20050;-63
2023/03/05 08:29:08;;;;;;;3.75;2.50;;;;;;;6.47;72.66;101614.28;3551049;40;20480;-64
2023/03/05 08:31:35;;;;;;;4.88;2.47;;;;;;;6.43;72.83;101601.94;3550857;40;20053;-65
2023/03/05 08:34:03;;;;;;;6.47;2.58;;;;;;;6.57;73.61;101614.00;3550788;40;20297;-64
2023/03/05 08:36:29;;;;;;;2.20;2.00;;;;;;;6.60;72.76;101598.75;3550481;40;20069;-64
2023/03/05 08:38:55;;;;;;;2.85;2.05;;;;;;;6.61;72.70;101594.25;3553248;40;20375;-64
2023/03/05 08:41:21;;;;;;;3.78;2.22;;;;;;;6.57;72.00;101574.81;3553405;40;20388;-65
2023/03/05 08:43:47;;;;;;;3.75;2.10;;;;;;;6.73;72.01;101599.22;3552930;40;20053;-65
2023/03/05 08:46:15;;;;;;;3.60;2.03;;;;;;;6.60;71.44;101555.13;3550436;40;20050;-65
2023/03/05 08:48:42;;;;;;;4.63;2.00;;;;;;;6.83;71.27;101584.59;3552211;40;20063;-64
2023/03/05 08:51:12;;;;;;;2.67;1.77;;;;;;;6.87;70.79;101588.03;3550015;40;20070;-65
2023/03/05 08:53:39;;;;;;;5.05;2.40;;;;;;;6.93;70.67;101580.69;3554901;40;20401;-65
2023/03/05 08:56:05;;;;;;;3.92;2.15;;;;;;;6.92;70.04;101583.41;3554031;40;20414;-65
2023/03/05 08:58:32;;;;;;;6.25;1.77;;;;;;;6.92;69.76;101584.28;3550603;40;20057;-66
2023/03/05 09:00:57;;;;;;;5.72;2.00;;;;;;;6.94;70.18;101579.75;3548019;40;20053;-65
2023/03/05 09:03:23;;;;;;;3.58;2.10;;;;;;;7.00;70.63;101570.66;3552042;40;20135;-67
2023/03/05 09:05:50;;;;;;;3.78;2.13;;;;;;;6.96;70.45;101559.19;3551684;40;20408;-64
2023/03/05 09:08:17;;;;;;;2.58;1.63;;;;;;;7.09;69.16;101575.66;3551102;40;20095;-65
2023/03/05 09:10:45;;;;;;;5.00;1.60;;;;;;;7.12;69.30;101567.53;3547660;40;20369;-65
2023/03/05 09:13:11;;;;;;;3.67;1.27;;;;;;;7.11;68.15;101567.63;3553173;40;20057;-65
2023/03/05 09:15:38;;;;;;;1.80;1.30;;;;;;;7.18;67.90;101564.66;3555653;40;20282;-65
2023/03/05 09:18:04;;;;;;;2.80;1.48;;;;;;;7.18;67.64;101561.97;3551841;40;20134;-64
2023/03/05 09:20:30;;;;;;;6.38;1.58;;;;;;;7.28;67.73;101567.00;3549218;40;20046;-66
2023/03/05 09:22:55;;;;;;;7.72;1.88;;;;;;;7.34;67.93;101559.63;3549719;40;20061;-65
2023/03/05 09:25:21;;;;;;;3.25;1.55;;;;;;;7.32;67.95;101558.78;3550123;40;20069;-65
2023/03/05 09:27:47;;;;;;;3.65;1.85;;;;;;;7.23;68.41;101524.41;3554585;40;20125;-66
2023/03/05 09:30:14;;;;;;;1.95;1.50;;;;;;;7.42;68.04;101553.97;3549435;40;20062;-65
2023/03/05 09:32:40;;;;;;;4.95;1.88;;;;;;;7.48;67.90;101551.06;3552631;40;20407;-66
2023/03/05 09:35:06;;;;;;;3.63;1.45;;;;;;;7.58;67.72;101547.16;3550148;40;20120;-67
2023/03/05 09:37:32;;;;;;;2.20;1.65;;;;;;;7.59;66.64;101543.53;3547546;40;20061;-66
2023/03/05 09:39:58;;;;;;;2.17;1.75;;;;;;;7.68;66.19;101548.53;3549748;40;20057;-66
2023/03/05 09:42:48;;;;;;;3.40;1.73;;;;;;;7.75;65.32;101548.31;3553602;40;20083;-68
2023/03/05 09:45:43;;;;;;;5.90;2.20;;;;;;;7.90;65.49;101542.38;3550027;40;20050;-68
2023/03/05 09:48:24;;;;;;;;;;;;;;;8.12;65.07;101540.56;3554082;40;20390;-68
2023/03/05 09:51:03;;;;;;;3.28;2.00;;;;;;;8.19;63.31;101537.66;3551469;40;20074;-68
2023/03/05 09:53:56;;;;;;;2.53;1.63;;;;;;;8.24;63.31;101527.59;3550472;40;20065;-67
2023/03/05 09:56:28;;;;;;;2.20;1.90;;;;;;;8.31;62.86;101531.81;3548500;40;20105;-67
2023/03/05 09:59:10;;;;;;;5.10;2.30;;;;;;;8.36;62.46;101536.00;3547746;40;20351;-67
2023/03/05 10:01:41;;;;;;;4.13;2.20;;;;;;;8.40;61.76;101528.75;3548273;40;20135;-68
2023/03/05 10:04:22;;;;;;;2.20;1.75;;;;;;;8.41;61.11;101524.28;3549654;40;20111;-68
2023/03/05 10:07:18;;;;;;;3.92;2.00;;;;;;;8.34;61.18;101526.28;3558335;40;20049;-68
2023/03/05 10:10:10;;;;;;;4.32;2.47;;;;;;;8.30;62.40;101530.03;3553997;40;20090;-69
2023/03/05 10:12:42;;;;;;;2.17;1.92;;;;;;;8.28;62.59;101531.94;3553478;40;20055;-68
2023/03/05 10:15:49;;;;;;;4.95;2.08;;;;;;;8.13;61.03;101531.59;3555363;40;20056;-69
2023/03/05 10:18:44;;;;;;;3.28;1.63;;;;;;;8.08;61.84;101525.53;3555102;40;20123;-69
2023/03/05 10:21:29;;;;;;;5.03;2.00;;;;;;;8.10;61.96;101522.81;3554163;40;20045;-69
2023/03/05 10:24:37;;;;;;;2.95;1.77;;;;;;;8.07;61.85;101507.75;3551947;40;20053;-69
2023/03/05 10:27:31;;;;;;;4.50;1.80;;;;;;;8.23;61.09;101508.00;3550489;40;20124;-68
2023/03/05 10:30:16;;;;;;;4.75;2.13;;;;;;;8.29;61.59;101501.50;3550737;40;20061;-68
2023/03/05 10:33:25;;;;;;;2.22;1.70;;;;;;;8.30;61.39;101498.75;3552335;40;20065;-71
2023/03/05 10:36:24;;;;;;;4.60;2.10;;;;;;;8.18;60.66;101482.31;3541148;40;20091;-70
2023/03/05 10:39:22;;;;;;;2.53;2.15;;;;;;;8.21;60.38;101493.78;3548686;40;20050;-71
2023/03/05 10:42:26;;;;;;;6.28;2.10;;;;;;;8.11;60.95;101487.06;3550575;40;20056;-71
2023/03/05 10:44:59;;;;;;;2.05;1.95;;;;;;;8.06;61.53;101499.78;3551609;40;20282;-71
2023/03/05 10:47:47;;;;;;;6.63;2.95;;;;;;;7.95;62.47;101502.00;3548286;40;20131;-70
2023/03/05 10:50:25;;;;;;;2.35;1.48;;;;;;;7.55;64.84;101509.81;3549651;40;20089;-67
2023/03/05 10:53:24;;;;;;;2.28;1.40;;;;;;;7.17;67.69;101505.91;3552591;40;20053;-65
2023/03/05 10:55:55;;;;;;;4.25;1.40;;;;;;;6.89;69.96;101500.69;3549684;40;20136;-65
2023/03/05 10:58:23;;;;;;;4.32;1.17;;;;;;;6.70;71.56;101485.28;3551129;40;20049;-64
2023/03/05 11:01:03;;;;;;;1.30;1.20;;;;;;;6.63;73.62;101486.44;3548682;40;20054;-65
2023/03/05 11:03:55;;;;;;;1.20;1.10;;;;;;;6.67;74.69;101481.84;3554910;40;20372;-64
2023/03/05 11:06:46;;;;;;;2.03;1.25;;;;;;;6.78;75.10;101478.78;3548044;40;20056;-65
2023/03/05 11:09:18;;;;;;;3.72;3.25;;;;;;;6.95;75.49;101477.28;3551203;40;20121;-65
2023/03/05 11:12:10;;;;;;;2.63;1.80;;;;;;;7.08;73.64;101466.13;3550781;40;20053;-65
2023/03/05 11:14:42;;;;;;;5.22;1.70;;;;;;;7.32;74.32;101464.31;3550331;40;20250;-65
2023/03/05 11:17:38;;;;;;;3.53;1.35;;;;;;;7.64;73.43;101455.94;3550901;40;20053;-66
2023/03/05 11:20:25;;;;;;;3.58;1.02;;;;;;;7.90;70.88;101451.34;3551092;40;20046;-66
2023/03/05 11:23:10;;;;;;;3.08;1.30;;;;;;;8.11;70.63;101449.56;3548327;40;20057;-66
2023/03/05 11:26:03;;;;;;;2.30;1.00;;;;;;;8.40;68.13;101451.06;3548910;40;20056;-67
2023/03/05 11:28:37;;;;;;;3.78;1.35;;;;;;;8.78;68.69;101452.06;3546402;40;20065;-67
2023/03/05 11:31:30;;;;;;;2.38;1.15;;;;;;;9.30;67.65;101441.66;3549882;40;20471;-67
2023/03/05 11:34:19;;;;;;;2.60;1.23;;;;;;;9.63;65.06;101448.19;3550064;40;20054;-68
2023/03/05 11:36:51;;;;;;;6.07;3.20;;;;;;;9.86;62.87;101441.69;3548355;40;20050;-69
2023/03/05 11:39:21;;;;;;;3.55;2.85;;;;;;;10.10;61.94;101434.25;3549139;40;20085;-70
2023/03/05 11:41:58;;;;;;;4.45;1.27;;;;;;;10.19;60.43;101434.66;3551351;40;20362;-71
2023/03/05 11:44:52;;;;;;;4.78;1.00;;;;;;;10.02;59.26;101426.56;3551126;40;20061;-71